Time;durP1;ratioP1;P1;durP2;ratioP2;P2;SDS_P1;SDS_P2;PMS_P1;PMS_P2;Temp;Humidity;BMP_temperature;BMP_pressure;BME280_temperature;BME280_humidity;BME280_pressure;Samples;Min_cycle;Max_cycle;Signal;HPM_P1;HPM_P2
2022/05/19 00:01:56;;;;;;;24.10;11.22;;;;;;;18.81;58.63;100016.00;1737879;82;21300;-63
2022/05/19 00:04:23;;;;;;;17.80;10.13;;;;;;;18.67;58.92;100016.83;1737674;81;21515;-56
2022/05/19 00:06:50;;;;;;;18.57;9.07;;;;;;;18.52;60.27;100025.84;1737970;81;21862;-58
2022/05/19 00:09:18;;;;;;;21.97;10.40;;;;;;;18.55;60.19;100023.25;1738659;81;21182;-56
2022/05/19 00:11:45;;;;;;;21.97;9.57;;;;;;;18.58;60.67;100032.01;1738462;81;21752;-56
2022/05/19 00:14:14;;;;;;;19.57;10.13;;;;;;;18.61;60.15;100023.09;1737988;81;21188;-64
2022/05/19 00:16:42;;;;;;;20.90;10.10;;;;;;;18.47;61.08;100025.77;1726297;82;21227;-56
2022/05/19 00:19:10;;;;;;;19.77;10.07;;;;;;;18.43;61.22;100032.05;1738161;81;21414;-56
2022/05/19 00:21:38;;;;;;;17.97;9.67;;;;;;;18.47;61.26;100033.69;1736704;82;21206;-56
2022/05/19 00:24:07;;;;;;;21.90;9.83;;;;;;;18.58;60.69;100032.01;1738051;81;21193;-59
2022/05/19 00:26:34;;;;;;;20.07;10.83;;;;;;;18.62;60.10;100030.48;1737283;81;21069;-57
2022/05/19 00:29:02;;;;;;;24.70;11.30;;;;;;;18.65;59.88;100039.25;1737611;81;21190;-56
2022/05/19 00:31:31;;;;;;;20.93;11.03;;;;;;;18.78;59.25;100036.29;1738068;81;21315;-57
2022/05/19 00:34:00;;;;;;;21.13;10.90;;;;;;;18.48;60.42;100042.67;1738550;81;21626;-55
2022/05/19 00:36:28;;;;;;;24.90;13.03;;;;;;;18.51;60.62;100053.28;1737308;81;21093;-64
2022/05/19 00:38:55;;;;;;;25.17;11.40;;;;;;;18.53;60.87;100053.86;1737483;82;22489;-56
2022/05/19 00:41:22;;;;;;;22.23;11.53;;;;;;;18.43;61.14;100043.92;1737761;82;21291;-56
2022/05/19 00:44:01;;;;;;;23.93;11.70;;;;;;;18.47;61.00;100050.84;1738578;81;21194;-57
2022/05/19 00:46:34;;;;;;;23.03;11.23;;;;;;;18.45;60.84;100051.62;1737511;81;21192;-57
2022/05/19 00:49:20;;;;;;;22.37;11.53;;;;;;;18.27;62.11;100052.64;1738211;82;21243;-56
2022/05/19 00:52:00;;;;;;;18.37;9.37;;;;;;;18.22;62.76;100056.48;1739007;81;21692;-55
2022/05/19 00:54:36;;;;;;;21.10;10.53;;;;;;;18.11;63.25;100060.02;1737964;82;21642;-57
2022/05/19 00:57:20;;;;;;;18.63;9.33;;;;;;;18.11;63.20;100061.34;1737513;81;21241;-56
2022/05/19 00:59:51;;;;;;;20.57;11.30;;;;;;;18.08;63.33;100062.60;1726238;82;21183;-62
2022/05/19 01:02:19;;;;;;;;;;;;;;;18.07;63.75;100068.92;1740253;82;21331;-55
2022/05/19 01:04:51;;;;;;;21.43;10.97;;;;;;;17.86;65.38;100071.69;1738924;81;20182;-55
2022/05/19 01:07:22;;;;;;;20.70;10.93;;;;;;;17.87;65.55;100069.85;1738378;81;21263;-55
2022/05/19 01:09:50;;;;;;;22.02;10.45;;;;;;;17.85;66.76;100076.69;1737727;81;21079;-57
2022/05/19 01:12:17;;;;;;;22.90;11.23;;;;;;;18.03;65.38;100073.56;1710009;82;21576;-56
2022/05/19 01:14:44;;;;;;;22.50;11.97;;;;;;;18.04;64.87;100078.63;1738140;81;21207;-56
2022/05/19 01:17:11;;;;;;;22.20;11.47;;;;;;;17.95;65.65;100075.55;1737615;82;21028;-56
2022/05/19 01:19:46;;;;;;;21.30;10.80;;;;;;;17.99;65.78;100073.23;1736336;82;21158;-65
2022/05/19 01:22:31;;;;;;;24.57;12.20;;;;;;;17.88;67.63;100081.99;1737893;81;21675;-57
2022/05/19 01:25:19;;;;;;;22.27;10.50;;;;;;;17.94;67.02;100077.91;1729758;82;21532;-59
2022/05/19 01:27:47;;;;;;;24.57;11.70;;;;;;;18.03;65.91;100078.31;1737316;82;21235;-57
2022/05/19 01:30:15;;;;;;;21.43;11.10;;;;;;;17.95;66.59;100076.86;1737364;82;21185;-58
2022/05/19 01:32:42;;;;;;;21.33;10.70;;;;;;;17.96;66.66;100077.16;1737247;82;21795;-62
2022/05/19 01:35:09;;;;;;;20.47;10.57;;;;;;;17.92;67.16;100079.99;1736687;82;21680;-62
2022/05/19 01:37:37;;;;;;;18.07;9.63;;;;;;;17.89;67.56;100083.62;1737370;81;21312;-55
2022/05/19 01:41:01;;;;;;;20.20;10.13;;;;;;;17.83;68.29;100086.66;1736640;81;21143;-56
2022/05/19 01:43:47;;;;;;;20.33;10.17;;;;;;;17.79;68.66;100092.64;1737443;82;21186;-56
2022/05/19 01:46:31;;;;;;;20.93;9.97;;;;;;;17.79;69.12;100098.71;1736932;81;22461;-56
2022/05/19 01:49:22;;;;;;;19.50;9.83;;;;;;;17.93;68.25;100104.52;1726584;82;21318;-56
2022/05/19 01:51:57;;;;;;;18.27;9.87;;;;;;;17.80;69.04;100103.46;1737390;82;21242;-63
2022/05/19 01:54:38;;;;;;;24.80;11.23;;;;;;;17.84;69.29;100106.73;1737297;82;21203;-57
2022/05/19 01:57:17;;;;;;;16.50;8.73;;;;;;;17.78;69.65;100111.62;1736757;82;21126;-56
2022/05/19 02:00:13;;;;;;;25.93;12.00;;;;;;;17.77;69.97;100116.62;1736076;81;20970;-57
2022/05/19 02:02:54;;;;;;;19.67;9.67;;;;;;;17.66;70.83;100116.89;1737079;81;21190;-56
2022/05/19 02:05:54;;;;;;;21.52;10.70;;;;;;;17.56;72.61;100114.04;1737704;82;22290;-56
2022/05/19 02:08:26;;;;;;;20.70;10.90;;;;;;;17.55;73.15;100117.72;1736914;82;21029;-58
2022/05/19 02:10:54;;;;;;;20.20;10.40;;;;;;;17.38;74.95;100118.13;1737347;82;21634;-56
2022/05/19 02:13:23;;;;;;;21.43;12.03;;;;;;;17.31;76.21;100117.45;1737051;82;20974;-56
2022/05/19 02:15:52;;;;;;;24.90;10.97;;;;;;;17.33;76.98;100107.49;1736954;82;21152;-57
2022/05/19 02:18:21;;;;;;;24.40;11.70;;;;;;;17.41;77.16;100122.95;1736825;82;21262;-57
2022/05/19 02:20:48;;;;;;;27.03;12.27;;;;;;;17.51;75.59;100123.97;1738457;81;21722;-55
2022/05/19 02:23:16;;;;;;;25.47;12.83;;;;;;;17.44;76.82;100123.28;1737353;82;21679;-56
2022/05/19 02:25:47;;;;;;;21.07;11.20;;;;;;;17.33;78.03;100120.66;1736519;82;21790;-56
2022/05/19 02:28:31;;;;;;;23.62;12.55;;;;;;;17.45;77.17;100130.15;1737603;81;21259;-65
2022/05/19 02:30:58;;;;;;;21.30;10.90;;;;;;;17.56;76.53;100131.17;1737315;82;21224;-56
2022/05/19 02:33:26;;;;;;;21.27;11.20;;;;;;;17.56;76.62;100135.13;1736969;81;21263;-56
2022/05/19 02:35:53;;;;;;;24.77;12.30;;;;;;;17.62;76.24;100128.94;1737052;82;21704;-56
2022/05/19 02:38:21;;;;;;;21.60;12.10;;;;;;;17.59;76.75;100124.64;1736681;82;20949;-56
2022/05/19 02:40:48;;;;;;;20.50;10.47;;;;;;;17.57;76.95;100124.06;1737108;82;21367;-56
2022/05/19 02:43:16;;;;;;;21.77;10.33;;;;;;;17.60;77.17;100123.60;1737361;81;21689;-61
2022/05/19 02:45:44;;;;;;;21.13;11.67;;;;;;;17.64;77.43;100123.42;1737176;82;21339;-55
2022/05/19 02:48:13;;;;;;;26.13;12.10;;;;;;;17.60;78.14;100121.77;1737323;82;21250;-63
2022/05/19 02:50:42;;;;;;;19.70;10.90;;;;;;;17.61;77.79;100123.36;1725789;82;21250;-55
2022/05/19 02:53:11;;;;;;;26.63;10.77;;;;;;;17.43;81.41;100128.80;1737528;81;21187;-64
2022/05/19 02:55:39;;;;;;;22.83;12.03;;;;;;;17.46;81.36;100132.27;1724924;81;21313;-57
2022/05/19 02:58:07;;;;;;;20.07;10.87;;;;;;;17.64;81.11;100141.35;1736804;82;21277;-56
2022/05/19 03:00:35;;;;;;;18.43;12.13;;;;;;;17.64;81.19;100141.87;1737528;81;20972;-65
2022/05/19 03:03:02;;;;;;;19.60;10.10;;;;;;;17.71;80.84;100144.66;1737948;81;21492;-56
2022/05/19 03:05:31;;;;;;;18.30;10.83;;;;;;;17.66;81.47;100145.89;1726159;81;21740;-56
2022/05/19 03:08:01;;;;;;;19.47;11.50;;;;;;;17.71;80.83;100144.66;1718995;83;21794;-55
2022/05/19 03:10:28;;;;;;;23.40;11.57;;;;;;;17.78;82.67;100149.84;1719841;81;21377;-58
2022/05/19 03:12:56;;;;;;;23.17;11.57;;;;;;;18.18;79.18;100141.11;1718593;83;21303;-55
2022/05/19 03:15:23;;;;;;;19.40;11.13;;;;;;;18.31;78.26;100144.80;1719424;81;21225;-58
2022/05/19 03:17:51;;;;;;;17.90;9.83;;;;;;;18.34;78.43;100146.17;1719461;81;21372;-55
2022/05/19 03:20:18;;;;;;;19.67;10.90;;;;;;;18.38;79.31;100144.66;1718209;83;21796;-60
2022/05/19 03:22:46;;;;;;;25.13;11.07;;;;;;;18.75;77.60;100144.23;1718092;83;21384;-55
2022/05/19 03:25:13;;;;;;;24.00;11.43;;;;;;;19.97;69.02;100139.36;1717967;83;21517;-57
2022/05/19 03:27:41;;;;;;;19.57;10.93;;;;;;;19.97;69.02;100139.36;1706823;83;21869;-55
2022/05/19 03:30:12;;;;;;;19.70;10.77;;;;;;;20.68;64.80;100135.81;1719354;81;22484;-56
2022/05/19 03:32:39;;;;;;;18.23;10.60;;;;;;;21.36;60.90;100144.25;1718786;81;21189;-56
2022/05/19 03:35:07;;;;;;;18.70;11.00;;;;;;;21.86;55.83;100140.79;1718031;83;21010;-57
2022/05/19 03:37:35;;;;;;;19.90;10.43;;;;;;;22.25;53.14;100138.52;1717729;83;21065;-55
2022/05/19 03:40:04;;;;;;;20.13;11.20;;;;;;;22.62;50.72;100135.37;1718240;83;21010;-55
2022/05/19 03:42:32;;;;;;;23.40;12.03;;;;;;;22.97;50.21;100135.37;1718404;81;21673;-57
2022/05/19 03:44:59;;;;;;;21.17;12.43;;;;;;;23.62;48.30;100134.67;1718070;83;21526;-55
2022/05/19 03:47:26;;;;;;;20.10;12.43;;;;;;;24.33;45.78;100127.66;1718669;81;21129;-55
2022/05/19 03:49:54;;;;;;;21.43;12.40;;;;;;;24.52;43.60;100134.48;1718996;81;21084;-58
2022/05/19 03:52:21;;;;;;;19.23;12.40;;;;;;;24.54;42.88;100136.85;1718581;81;21097;-57
2022/05/19 03:54:49;;;;;;;19.70;11.07;;;;;;;24.55;41.80;100143.25;1718752;81;21878;-55
2022/05/19 03:57:21;;;;;;;19.43;12.33;;;;;;;24.35;41.64;100145.48;1719099;81;21838;-59
2022/05/19 03:59:45;;;;;;;21.83;12.70;;;;;;;24.19;41.57;100146.66;1718137;81;21473;-56
2022/05/19 04:02:14;;;;;;;19.13;11.80;;;;;;;24.32;42.07;100146.05;1719044;83;21244;-56
2022/05/19 04:04:42;;;;;;;19.50;12.37;;;;;;;25.33;41.76;100153.48;1709437;82;20991;-61
2022/05/19 04:07:11;;;;;;;21.93;10.67;;;;;;;26.75;39.96;100148.12;1737615;82;21030;-56
2022/05/19 04:09:38;;;;;;;17.27;10.37;;;;;;;28.16;37.96;100141.38;1736509;81;20942;-55
2022/05/19 04:12:09;;;;;;;17.43;10.50;;;;;;;29.41;34.27;100142.28;1737780;81;21845;-56
2022/05/19 04:14:37;;;;;;;17.50;9.63;;;;;;;30.16;32.42;100139.02;1737332;81;21039;-55
2022/05/19 04:17:04;;;;;;;13.60;9.50;;;;;;;30.52;30.94;100145.39;1736534;82;20983;-56
2022/05/19 04:19:32;;;;;;;15.03;9.93;;;;;;;30.23;30.01;100157.62;1736330;82;21152;-56
2022/05/19 04:21:59;;;;;;;16.53;10.67;;;;;;;29.72;30.26;100148.93;1738099;81;21029;-55
2022/05/19 04:24:29;;;;;;;17.57;11.23;;;;;;;29.13;30.64;100153.22;1710083;82;33640;-56
2022/05/19 04:26:57;;;;;;;18.50;10.77;;;;;;;28.90;31.36;100159.70;1736240;82;21038;-59
2022/05/19 04:29:24;;;;;;;19.13;11.07;;;;;;;28.75;31.12;100165.73;1737311;81;21260;-57
2022/05/19 04:31:51;;;;;;;20.97;11.57;;;;;;;27.99;31.76;100164.23;1736914;82;21229;-56
2022/05/19 04:34:19;;;;;;;20.03;12.20;;;;;;;27.25;32.84;100170.28;1737486;81;21224;-56
2022/05/19 04:36:46;;;;;;;17.23;10.17;;;;;;;26.78;33.56;100179.59;1737231;82;20961;-63
2022/05/19 04:39:14;;;;;;;18.80;12.10;;;;;;;26.23;34.23;100178.57;1736894;82;21041;-56
2022/05/19 04:41:41;;;;;;;20.53;10.57;;;;;;;25.55;35.14;100188.47;1725247;82;20954;-56
2022/05/19 04:44:10;;;;;;;19.13;11.97;;;;;;;25.19;35.86;100184.03;1737147;82;21498;-56
2022/05/19 04:46:38;;;;;;;19.23;12.27;;;;;;;24.76;36.46;100186.52;1737113;81;20975;-57
2022/05/19 04:49:06;;;;;;;17.03;10.33;;;;;;;24.19;37.72;100191.40;1737092;82;21572;-56
2022/05/19 04:51:34;;;;;;;15.93;10.83;;;;;;;23.93;38.61;100185.40;1737507;81;22026;-56
2022/05/19 04:54:01;;;;;;;16.23;10.53;;;;;;;23.72;38.95;100194.02;1737777;81;21100;-56
2022/05/19 04:56:30;;;;;;;16.60;10.10;;;;;;;23.60;39.40;100190.02;1737701;81;21275;-56
2022/05/19 04:58:58;;;;;;;18.70;10.70;;;;;;;23.46;39.84;100191.93;1737106;82;20983;-57
2022/05/19 05:01:25;;;;;;;17.13;10.20;;;;;;;23.34;40.25;100199.41;1736797;81;21060;-63
2022/05/19 05:03:53;;;;;;;19.83;10.50;;;;;;;23.32;40.34;100198.87;1737709;82;21515;-56
2022/05/19 05:06:20;;;;;;;17.90;10.20;;;;;;;23.23;40.83;100199.16;1738434;81;21554;-55
2022/05/19 05:08:47;;;;;;;16.93;10.97;;;;;;;23.38;40.97;100197.80;1738165;81;21071;-56
2022/05/19 05:11:15;;;;;;;16.03;10.30;;;;;;;23.60;40.95;100192.67;1737591;81;21021;-64
2022/05/19 05:13:42;;;;;;;15.50;10.07;;;;;;;23.81;41.00;100188.92;1737232;82;21120;-56
2022/05/19 05:16:09;;;;;;;15.50;9.63;;;;;;;24.22;40.67;100190.06;1737912;81;21430;-55
2022/05/19 05:18:36;;;;;;;14.67;8.43;;;;;;;24.44;40.21;100188.37;1737581;82;21033;-55
2022/05/19 05:21:06;;;;;;;13.67;9.33;;;;;;;24.71;39.91;100195.36;1737163;82;20986;-58
2022/05/19 05:23:33;;;;;;;15.97;9.37;;;;;;;24.83;39.28;100196.87;1736521;82;21002;-60
2022/05/19 05:26:03;;;;;;;15.73;9.30;;;;;;;24.94;39.08;100195.17;1737150;82;21517;-58
2022/05/19 05:28:31;;;;;;;17.20;9.23;;;;;;;25.08;38.44;100188.66;1737228;82;20973;-55
2022/05/19 05:30:58;;;;;;;17.23;9.30;;;;;;;24.93;38.64;100194.13;1737487;81;21556;-63
2022/05/19 05:33:25;;;;;;;16.83;9.60;;;;;;;24.87;38.81;100199.23;1737066;82;21091;-64
2022/05/19 05:35:52;;;;;;;17.60;9.97;;;;;;;24.88;38.94;100199.48;1737100;81;21044;-56
2022/05/19 05:38:20;;;;;;;16.47;10.27;;;;;;;24.99;39.27;100199.66;1737865;81;21887;-56
2022/05/19 05:40:51;;;;;;;11.67;8.03;;;;;;;25.16;39.10;100203.29;1737860;81;21524;-59
2022/05/19 05:43:20;;;;;;;11.80;6.90;;;;;;;25.26;39.13;100203.17;1736137;82;21041;-56
2022/05/19 05:45:48;;;;;;;10.50;5.73;;;;;;;25.36;38.75;100204.41;1736938;81;21863;-56
2022/05/19 05:48:15;;;;;;;9.80;5.70;;;;;;;25.69;38.75;100204.06;1737598;81;22371;-58
2022/05/19 05:50:43;;;;;;;7.87;4.00;;;;;;;26.06;37.83;100201.76;1737047;81;21023;-57
2022/05/19 05:53:10;;;;;;;5.07;3.33;;;;;;;26.16;37.45;100205.09;1736502;82;22349;-62
2022/05/19 05:55:39;;;;;;;7.00;3.27;;;;;;;26.46;37.34;100198.31;1726418;81;20997;-55
2022/05/19 05:58:07;;;;;;;4.37;2.83;;;;;;;26.85;37.15;100200.63;1737276;81;21581;-58
2022/05/19 06:00:34;;;;;;;5.37;3.00;;;;;;;27.45;36.22;100197.98;1737446;81;20994;-55
2022/05/19 06:03:01;;;;;;;4.27;2.97;;;;;;;27.99;34.97;100195.59;1737636;81;20955;-62
2022/05/19 06:05:29;;;;;;;4.27;2.67;;;;;;;28.21;34.55;100193.52;1735278;81;21003;-58
2022/05/19 06:07:57;;;;;;;5.50;3.30;;;;;;;28.49;34.07;100191.55;1718106;83;21015;-56
2022/05/19 06:10:25;;;;;;;4.53;3.30;;;;;;;28.79;34.39;100193.52;1718555;83;21160;-57
2022/05/19 06:12:53;;;;;;;4.60;3.10;;;;;;;29.20;33.12;100191.70;1718357;83;21129;-58
2022/05/19 06:15:20;;;;;;;5.20;3.57;;;;;;;29.80;33.33;100191.92;1718581;81;21619;-55
2022/05/19 06:17:47;;;;;;;5.50;3.13;;;;;;;30.71;31.91;100192.13;1719441;81;21351;-56
2022/05/19 06:20:17;;;;;;;4.53;3.00;;;;;;;31.39;30.53;100184.98;1717735;83;20999;-58
2022/05/19 06:22:44;;;;;;;4.37;3.20;;;;;;;31.68;29.96;100182.07;1718943;81;21955;-56
2022/05/19 06:25:16;;;;;;;4.33;3.40;;;;;;;31.50;28.97;100188.89;1718704;81;20966;-56
2022/05/19 06:27:45;;;;;;;4.83;3.90;;;;;;;30.98;28.87;100191.77;1708245;81;21322;-53
2022/05/19 06:30:12;;;;;;;6.27;3.63;;;;;;;30.38;29.64;100195.88;1719131;81;20947;-54
2022/05/19 06:32:43;;;;;;;7.27;3.87;;;;;;;29.88;30.28;100194.95;1707866;81;22014;-55
2022/05/19 06:35:12;;;;;;;9.33;4.73;;;;;;;29.27;31.26;100198.76;1718535;81;21317;-55
2022/05/19 06:37:41;;;;;;;8.13;4.00;;;;;;;28.92;31.69;100203.92;1707072;83;21555;-56
2022/05/19 06:40:09;;;;;;;5.03;3.60;;;;;;;28.51;31.87;100200.09;1718559;81;21014;-55
2022/05/19 06:42:37;;;;;;;5.97;4.17;;;;;;;27.92;32.79;100202.72;1718182;83;21085;-54
2022/05/19 06:45:06;;;;;;;5.43;3.57;;;;;;;27.43;34.06;100204.72;1719319;81;21040;-58
2022/05/19 06:47:33;;;;;;;6.10;3.40;;;;;;;27.38;34.07;100190.89;1719314;81;21017;-58
2022/05/19 06:50:00;;;;;;;6.03;2.97;;;;;;;27.25;34.27;100192.47;1718060;82;21606;-57
2022/05/19 06:52:32;;;;;;;4.60;2.40;;;;;;;27.38;34.26;100193.56;1719023;81;22400;-56
2022/05/19 06:55:00;;;;;;;4.40;2.30;;;;;;;27.53;33.22;100183.11;1718914;81;21576;-61
2022/05/19 06:57:28;;;;;;;8.77;2.30;;;;;;;27.60;32.40;100188.31;1718124;83;21660;-56
2022/05/19 06:59:55;;;;;;;3.43;2.13;;;;;;;27.62;32.70;100191.50;1718422;81;21231;-58
2022/05/19 07:02:24;;;;;;;2.90;1.70;;;;;;;27.65;32.64;100184.22;1718785;81;21272;-57
2022/05/19 07:04:52;;;;;;;2.57;1.50;;;;;;;28.26;32.20;100184.01;1719903;81;21101;-55
2022/05/19 07:07:19;;;;;;;7.93;2.10;;;;;;;28.97;31.53;100182.87;1718345;81;21089;-56
2022/05/19 07:09:48;;;;;;;3.20;1.77;;;;;;;29.50;29.96;100183.36;1718012;83;21383;-56
2022/05/19 07:12:21;;;;;;;4.40;1.80;;;;;;;29.93;28.93;100184.03;1717839;83;21418;-58
2022/05/19 07:14:51;;;;;;;3.70;1.70;;;;;;;30.40;28.84;100179.66;1719460;81;20979;-57
2022/05/19 07:17:18;;;;;;;2.67;1.70;;;;;;;31.00;28.18;100183.38;1717311;83;21031;-60
2022/05/19 07:22:33;;;;;;;2.50;1.70;;;;;;;31.39;26.01;100173.43;1719933;81;21059;-56
2022/05/19 07:25:22;;;;;;;4.60;1.70;;;;;;;30.88;26.22;100183.27;1718711;81;21256;-62
2022/05/19 07:27:49;;;;;;;2.80;1.77;;;;;;;29.52;27.39;100190.57;1698796;83;21021;-55
2022/05/19 07:30:16;;;;;;;4.10;2.27;;;;;;;29.37;27.56;100178.91;1718199;83;21046;-56
2022/05/19 07:32:43;;;;;;;4.10;2.00;;;;;;;29.03;27.68;100174.98;1718112;83;21078;-64
2022/05/19 07:35:11;;;;;;;2.53;1.80;;;;;;;28.53;28.38;100177.80;1718145;83;21096;-58
2022/05/19 07:37:39;;;;;;;3.37;1.83;;;;;;;28.19;28.60;100183.11;1716720;83;22487;-56
2022/05/19 07:40:07;;;;;;;3.20;2.03;;;;;;;27.65;29.49;100180.72;1718142;83;21455;-55
2022/05/19 07:42:35;;;;;;;2.67;1.70;;;;;;;27.49;29.92;100182.13;1716861;83;21029;-64
2022/05/19 07:45:02;;;;;;;4.07;2.00;;;;;;;28.45;29.55;100178.51;1717477;82;21501;-56
2022/05/19 07:47:30;;;;;;;3.33;1.80;;;;;;;29.30;29.68;100172.09;1717164;83;21026;-64
2022/05/19 07:49:57;;;;;;;4.53;1.93;;;;;;;30.14;28.30;100177.50;1717829;83;21505;-57
2022/05/19 07:52:26;;;;;;;2.87;1.90;;;;;;;30.65;26.81;100175.90;1717740;83;21042;-63
2022/05/19 07:54:56;;;;;;;5.00;1.90;;;;;;;30.63;25.90;100172.20;1717874;83;22113;-56
2022/05/19 07:57:23;;;;;;;5.90;2.10;;;;;;;30.13;25.86;100172.69;1718184;83;21021;-58
2022/05/19 07:59:52;;;;;;;6.53;2.27;;;;;;;29.38;26.35;100175.12;1718346;83;21032;-56
2022/05/19 08:02:20;;;;;;;3.50;2.27;;;;;;;28.79;26.71;100177.95;1718063;83;21097;-56
2022/05/19 08:04:47;;;;;;;2.97;2.30;;;;;;;28.31;27.64;100182.02;1717959;82;20895;-58
2022/05/19 08:07:15;;;;;;;3.93;1.97;;;;;;;27.99;28.09;100185.66;1717539;83;21299;-57
2022/05/19 08:15:35;;;;;;;5.03;2.00;;;;;;;27.03;29.38;100173.03;1716670;82;22865;-57
2022/05/19 08:18:08;;;;;;;2.53;1.80;;;;;;;27.32;29.06;100176.83;1718342;83;21045;-61
2022/05/19 08:20:39;;;;;;;2.97;1.80;;;;;;;27.81;28.41;100176.69;1717216;83;21004;-56
2022/05/19 08:23:12;;;;;;;2.37;1.70;;;;;;;27.72;28.46;100175.76;1702562;84;21042;-54
2022/05/19 08:25:40;;;;;;;4.70;2.00;;;;;;;27.62;28.66;100179.45;1717807;83;21038;-58
2022/05/19 08:28:07;;;;;;;5.10;1.63;;;;;;;27.79;29.10;100177.52;1717140;83;21197;-57
2022/05/19 08:30:35;;;;;;;3.93;1.90;;;;;;;28.25;28.26;100176.52;1718282;83;21010;-64
2022/05/19 08:33:07;;;;;;;4.03;1.90;;;;;;;28.55;27.29;100168.34;1717449;83;21053;-57
2022/05/19 08:35:34;;;;;;;3.60;1.77;;;;;;;28.66;26.82;100170.23;1701750;84;21123;-57
2022/05/19 08:38:01;;;;;;;3.40;1.67;;;;;;;28.58;26.60;100170.42;1716846;83;21084;-55
2022/05/19 08:40:28;;;;;;;3.93;1.80;;;;;;;28.26;26.47;100170.08;1717933;83;21153;-56
2022/05/19 08:42:58;;;;;;;2.83;1.63;;;;;;;28.12;26.18;100174.13;1717124;83;21571;-59
2022/05/19 08:45:33;;;;;;;3.17;1.40;;;;;;;28.25;26.71;100163.67;1701614;84;21447;-55
2022/05/19 08:48:07;;;;;;;2.90;1.40;;;;;;;28.77;25.71;100159.49;1713732;83;20983;-55
2022/05/19 08:50:46;;;;;;;2.43;1.50;;;;;;;29.07;25.11;100156.59;1698174;83;21724;-55
2022/05/19 08:53:13;;;;;;;2.00;1.33;;;;;;;29.25;24.60;100150.76;1702022;83;21814;-58
2022/05/19 08:55:44;;;;;;;3.23;1.60;;;;;;;29.22;24.36;100159.98;1695369;83;21010;-64
2022/05/19 08:58:42;;;;;;;3.27;1.70;;;;;;;29.08;23.86;100152.80;1703008;83;22297;-56
2022/05/19 09:01:23;;;;;;;2.23;1.30;;;;;;;28.88;24.40;100148.51;1679707;83;21552;-62
2022/05/19 09:04:18;;;;;;;3.45;1.40;;;;;;;28.63;24.18;100152.61;1698661;83;26986;-64
2022/05/19 09:10:16;;;;;;;3.27;1.33;;;;;;;27.87;25.51;100146.00;1718144;83;21723;-56
2022/05/19 09:12:45;;;;;;;2.52;1.32;;;;;;;27.59;25.50;100151.14;1702461;83;21603;-57
2022/05/19 09:15:13;;;;;;;3.27;1.80;;;;;;;27.41;25.53;100151.48;1718017;82;21097;-57
2022/05/19 09:17:43;;;;;;;3.60;1.60;;;;;;;27.56;25.57;100143.70;1706841;83;21077;-63
2022/05/19 09:20:15;;;;;;;5.50;1.67;;;;;;;27.58;26.12;100140.98;1702638;84;21280;-57
2022/05/19 09:22:44;;;;;;;3.63;1.50;;;;;;;27.85;25.89;100147.42;1696912;83;20875;-58
2022/05/19 09:25:17;;;;;;;3.80;2.00;;;;;;;28.20;25.49;100145.82;1718241;83;21803;-58
2022/05/19 09:27:47;;;;;;;4.83;1.53;;;;;;;28.24;24.87;100146.80;1679522;83;21011;-54
2022/05/19 09:30:37;;;;;;;2.93;1.40;;;;;;;28.33;24.32;100140.16;1698152;83;21058;-57
2022/05/19 09:33:28;;;;;;;4.57;1.97;;;;;;;28.19;24.47;100139.44;1687575;84;21188;-59
2022/05/19 09:35:55;;;;;;;4.90;1.85;;;;;;;28.04;24.72;100141.91;1720240;83;20987;-64
2022/05/19 09:38:33;;;;;;;4.07;1.50;;;;;;;28.14;24.57;100145.69;1701805;84;21305;-56
2022/05/19 09:41:07;;;;;;;6.23;1.90;;;;;;;28.26;24.87;100135.23;1717374;83;20993;-63
2022/05/19 09:43:36;;;;;;;3.10;1.30;;;;;;;28.59;24.45;100138.47;1718388;83;20947;-58
2022/05/19 09:46:14;;;;;;;2.83;1.27;;;;;;;29.20;23.48;100122.69;1717913;83;21581;-55
2022/05/19 09:48:45;;;;;;;3.27;1.33;;;;;;;29.87;23.52;100126.19;1717389;83;21077;-62
2022/05/19 09:51:17;;;;;;;6.97;1.97;;;;;;;30.60;23.04;100128.44;1718307;83;21048;-57
2022/05/19 09:53:51;;;;;;;3.85;1.50;;;;;;;31.34;21.92;100119.19;1696755;83;21003;-58
2022/05/19 09:56:22;;;;;;;4.80;1.60;;;;;;;31.42;21.35;100124.30;1702210;84;21126;-55
2022/05/19 09:58:55;;;;;;;3.20;1.67;;;;;;;31.12;21.05;100117.53;1716945;83;21868;-60
2022/05/19 10:01:29;;;;;;;4.43;1.90;;;;;;;31.06;21.85;100120.16;1701337;83;21336;-58
2022/05/19 10:04:01;;;;;;;5.87;2.60;;;;;;;30.89;20.97;100120.25;1717653;83;21962;-57
2022/05/19 10:06:56;;;;;;;6.58;2.42;;;;;;;30.40;21.21;100124.53;1702036;84;21031;-62
2022/05/19 10:09:31;;;;;;;4.30;1.93;;;;;;;30.17;21.66;100127.95;1717748;83;21551;-54
2022/05/19 10:12:12;;;;;;;4.53;1.93;;;;;;;29.69;21.82;100129.40;1702755;84;21244;-56
2022/05/19 10:14:41;;;;;;;5.57;2.00;;;;;;;29.29;22.11;100130.23;1696408;83;21577;-56
2022/05/19 10:17:31;;;;;;;3.47;1.30;;;;;;;29.06;22.28;100131.42;1717796;83;20875;-58
2022/05/19 10:20:25;;;;;;;3.10;1.40;;;;;;;28.95;22.60;100130.87;1695123;84;21455;-54
2022/05/19 10:23:31;;;;;;;4.40;1.60;;;;;;;29.38;22.24;100136.18;1717948;83;22003;-56
2022/05/19 10:26:10;;;;;;;3.37;1.40;;;;;;;29.30;22.13;100131.81;1702739;83;21982;-58
2022/05/19 10:31:52;;;;;;;2.70;1.40;;;;;;;28.89;23.04;100140.69;1690176;84;21415;-56
2022/05/19 10:34:58;;;;;;;3.43;1.30;;;;;;;28.85;23.16;100137.28;1715881;83;21037;-55
2022/05/19 10:37:43;;;;;;;4.67;1.60;;;;;;;28.96;22.42;100133.00;1717426;83;21909;-56
2022/05/19 10:40:24;;;;;;;3.47;1.20;;;;;;;28.68;22.55;100129.16;1716541;83;21137;-55
2022/05/19 10:43:06;;;;;;;1.97;1.00;;;;;;;28.35;23.19;100129.94;1716489;82;20958;-55
2022/05/19 10:45:48;;;;;;;2.40;1.30;;;;;;;28.25;23.12;100130.95;1714962;81;21144;-55
2022/05/19 10:48:49;;;;;;;4.30;1.32;;;;;;;28.34;23.09;100118.42;1715634;83;21115;-58
2022/05/19 10:51:31;;;;;;;4.05;1.50;;;;;;;28.31;23.56;100129.75;1716327;83;20994;-55
2022/05/19 10:54:30;;;;;;;4.70;1.23;;;;;;;28.64;22.73;100125.50;1684868;83;21725;-55
2022/05/19 10:57:36;;;;;;;2.97;1.20;;;;;;;28.78;22.47;100125.41;1716848;83;20962;-54
2022/05/19 11:00:19;;;;;;;6.07;1.53;;;;;;;29.02;22.77;100113.80;1716644;83;21065;-55
2022/05/19 11:03:15;;;;;;;3.97;1.30;;;;;;;29.45;22.82;100109.66;1695472;82;21081;-64
2022/05/19 11:05:52;;;;;;;6.50;2.17;;;;;;;29.83;21.93;100114.49;1717192;83;20958;-56
2022/05/19 11:08:39;;;;;;;2.40;1.53;;;;;;;29.81;21.29;100126.35;1715514;83;21136;-57
2022/05/19 11:11:34;;;;;;;4.08;2.08;;;;;;;29.63;21.68;100125.30;1717202;82;20962;-55
2022/05/19 11:14:20;;;;;;;4.50;1.80;;;;;;;29.42;21.10;100122.37;1715980;83;21562;-56
2022/05/19 11:16:57;;;;;;;2.90;1.60;;;;;;;29.34;21.24;100124.72;1717179;83;20954;-55
2022/05/19 11:19:29;;;;;;;4.17;1.87;;;;;;;29.32;21.68;100125.59;1715950;83;21062;-65
2022/05/19 11:22:15;;;;;;;3.33;1.87;;;;;;;29.46;21.88;100122.77;1716499;83;21669;-57
2022/05/19 11:27:50;;;;;;;4.13;1.60;;;;;;;29.33;21.93;100127.17;1719891;82;21049;-56
2022/05/19 11:30:24;;;;;;;2.90;1.60;;;;;;;29.49;21.80;100129.42;1721933;83;21354;-58
2022/05/19 11:32:55;;;;;;;4.10;1.47;;;;;;;29.59;22.28;100127.82;1708005;83;21808;-56
2022/05/19 11:35:32;;;;;;;3.63;1.37;;;;;;;29.68;21.34;100130.52;1722742;83;21283;-55
2022/05/19 11:38:29;;;;;;;6.47;1.67;;;;;;;29.57;21.56;100129.46;1723133;82;21491;-57
2022/05/19 11:41:06;;;;;;;1.83;1.00;;;;;;;29.36;21.42;100131.66;1648601;86;21009;-56
2022/05/19 11:43:44;;;;;;;5.00;1.10;;;;;;;29.07;21.52;100128.42;1646157;85;21135;-56
2022/05/19 11:46:19;;;;;;;2.40;1.10;;;;;;;28.82;21.80;100130.39;1645273;85;22300;-56
2022/05/19 11:55:19;;;;;;;2.73;1.20;;;;;;;28.77;21.25;100120.59;1644889;85;21533;-57
2022/05/19 11:57:59;;;;;;;4.27;2.00;;;;;;;28.57;21.60;100118.44;1645089;85;21028;-56
2022/05/19 12:01:01;;;;;;;4.90;1.43;;;;;;;28.38;21.41;100112.48;1644991;85;21099;-56
2022/05/19 12:03:46;;;;;;;3.27;1.50;;;;;;;28.13;21.82;100118.64;1643580;85;21173;-57
2022/05/19 12:06:23;;;;;;;4.50;2.00;;;;;;;28.05;21.91;100113.47;1644900;85;21275;-58
2022/05/19 12:09:02;;;;;;;4.43;2.30;;;;;;;28.06;21.88;100109.68;1628996;86;21511;-56